Time;durP1;ratioP1;P1;durP2;ratioP2;P2;SDS_P1;SDS_P2;PMS_P1;PMS_P2;Temp;Humidity;BMP_temperature;BMP_pressure;BME280_temperature;BME280_humidity;BME280_pressure;Samples;Min_cycle;Max_cycle;Signal;HPM_P1;HPM_P2
2022/07/13 00:00:20;;;;;;;37.13;16.87;;;;;;;35.23;44.22;101329.97;6250428;22;20377;-73
2022/07/13 00:02:46;;;;;;;40.97;14.33;;;;;;;35.31;44.33;101334.00;6250351;22;20799;-73
2022/07/13 00:05:12;;;;;;;35.17;13.63;;;;;;;35.18;44.51;101346.19;6250186;22;20373;-73
2022/07/13 00:07:38;;;;;;;33.33;14.83;;;;;;;35.29;44.63;101344.25;6250305;22;20765;-73
2022/07/13 00:10:05;;;;;;;36.50;15.03;;;;;;;35.33;44.38;101337.22;6250002;22;20499;-73
2022/07/13 00:12:31;;;;;;;38.80;16.73;;;;;;;35.30;44.42;101328.88;6224997;22;20393;-73
2022/07/13 00:14:57;;;;;;;33.87;14.40;;;;;;;35.34;43.88;101338.03;6250105;22;20381;-73
2022/07/13 00:17:23;;;;;;;33.47;12.03;;;;;;;35.42;44.08;101329.34;6250124;22;20378;-73
2022/07/13 00:19:50;;;;;;;34.23;14.33;;;;;;;35.54;44.08;101337.94;6250094;22;20738;-73
2022/07/13 00:22:16;;;;;;;39.57;13.67;;;;;;;35.24;43.90;101331.59;6250261;22;20431;-71
2022/07/13 00:24:42;;;;;;;34.60;13.13;;;;;;;35.34;43.49;101336.13;6250277;22;20377;-71
2022/07/13 00:27:08;;;;;;;31.73;15.00;;;;;;;35.32;43.37;101334.81;6250082;22;20381;-71
2022/07/13 00:29:34;;;;;;;38.47;13.40;;;;;;;35.31;43.29;101334.00;6250119;22;20421;-73
2022/07/13 00:32:00;;;;;;;32.30;12.40;;;;;;;35.23;43.77;101329.16;6276744;22;20421;-72
2022/07/13 00:34:27;;;;;;;38.63;18.43;;;;;;;35.40;42.85;101318.84;6248296;22;20488;-73
2022/07/13 00:36:53;;;;;;;49.03;18.93;;;;;;;35.27;43.53;101320.25;6248343;22;20378;-73
2022/07/13 00:39:19;;;;;;;33.17;14.93;;;;;;;35.30;43.45;101318.91;6275602;22;20392;-73
2022/07/13 00:41:46;;;;;;;32.97;14.77;;;;;;;35.27;43.97;101317.56;6248112;22;20381;-73
2022/07/13 00:44:15;;;;;;;36.67;14.43;;;;;;;35.31;43.86;101319.72;6248128;22;20385;-71
2022/07/13 00:46:45;;;;;;;31.13;13.10;;;;;;;35.33;43.81;101314.84;6247995;22;20381;-71
2022/07/13 00:49:13;;;;;;;36.27;15.53;;;;;;;35.50;43.72;101324.22;6248169;22;20850;-71
2022/07/13 00:51:40;;;;;;;40.97;17.73;;;;;;;35.35;43.77;101329.66;6248254;22;20409;-71
2022/07/13 00:54:07;;;;;;;44.20;15.53;;;;;;;35.39;43.63;101329.91;6247974;22;20393;-72
2022/07/13 00:56:34;;;;;;;25.87;12.53;;;;;;;35.35;43.60;101329.66;6248215;22;20850;-71
2022/07/13 00:59:00;;;;;;;25.30;14.00;;;;;;;35.30;43.77;101327.00;6247988;22;20472;-72
2022/07/13 01:01:27;;;;;;;20.27;12.77;;;;;;;35.36;43.44;101325.91;6247726;22;20496;-71
2022/07/13 01:03:53;;;;;;;28.27;12.00;;;;;;;35.40;43.53;101320.75;6248037;22;20381;-73
2022/07/13 01:06:20;;;;;;;40.23;13.07;;;;;;;35.44;43.52;101329.94;6247978;22;20382;-71
2022/07/13 01:08:46;;;;;;;19.03;11.87;;;;;;;35.52;42.99;101327.44;6247968;22;20433;-73
2022/07/13 01:11:12;;;;;;;26.30;13.87;;;;;;;35.51;43.16;101323.13;6247819;22;20487;-73
2022/07/13 01:13:40;;;;;;;35.70;12.17;;;;;;;35.57;43.85;101326.63;6248153;22;20385;-71
2022/07/13 01:16:09;;;;;;;30.37;13.30;;;;;;;35.59;43.01;101327.13;6275447;22;20392;-71
2022/07/13 01:18:37;;;;;;;26.00;11.93;;;;;;;35.46;43.20;101323.16;6248032;22;20720;-71
2022/07/13 01:21:04;;;;;;;27.67;12.20;;;;;;;35.41;43.86;101316.94;6248110;22;20435;-71
2022/07/13 01:23:32;;;;;;;35.90;14.97;;;;;;;35.43;43.56;101317.53;6275444;22;20443;-72
2022/07/13 01:25:59;;;;;;;31.90;13.43;;;;;;;35.43;43.05;101325.63;6248156;22;20377;-72
2022/07/13 01:28:25;;;;;;;46.43;18.73;;;;;;;35.32;42.90;101327.53;6275468;22;20385;-72
2022/07/13 01:30:51;;;;;;;39.53;13.23;;;;;;;35.33;43.25;101333.72;6275200;22;20432;-71
2022/07/13 01:33:18;;;;;;;36.17;14.33;;;;;;;35.26;43.70;101325.94;6165365;22;1936296;-72
2022/07/13 01:35:44;;;;;;;31.50;14.60;;;;;;;35.20;43.57;101322.44;6249430;22;20173;-71
2022/07/13 01:38:10;;;;;;;34.37;16.20;;;;;;;35.37;43.14;101321.31;6276841;22;20680;-72
2022/07/13 01:40:37;;;;;;;36.57;15.30;;;;;;;35.30;43.44;101313.50;6277072;22;20353;-71
2022/07/13 01:43:03;;;;;;;36.77;14.60;;;;;;;35.36;43.47;101319.66;6249412;22;20373;-72
2022/07/13 01:45:29;;;;;;;30.90;16.00;;;;;;;35.40;43.58;101332.34;6249246;22;20473;-71
2022/07/13 01:47:56;;;;;;;31.90;14.70;;;;;;;35.27;43.63;101320.25;6276823;22;20384;-72
2022/07/13 01:50:25;;;;;;;34.93;13.30;;;;;;;35.15;43.22;101321.66;6248835;22;20892;-72
2022/07/13 01:52:51;;;;;;;25.33;9.80;;;;;;;35.18;43.43;101321.13;6249192;22;20373;-71
2022/07/13 01:55:18;;;;;;;41.17;14.53;;;;;;;35.32;43.19;101321.31;6276952;22;20350;-71
2022/07/13 01:57:44;;;;;;;31.53;13.67;;;;;;;35.33;43.14;101328.31;6249159;22;20455;-72
2022/07/13 02:00:15;;;;;;;35.40;13.57;;;;;;;35.39;43.22;101327.22;6248957;22;20374;-72
2022/07/13 02:02:42;;;;;;;30.17;12.20;;;;;;;35.30;42.77;101329.69;6249207;22;20405;-72
2022/07/13 02:05:11;;;;;;;33.00;13.27;;;;;;;35.42;43.08;101338.31;6249031;22;20382;-71
2022/07/13 02:07:39;;;;;;;35.60;15.20;;;;;;;35.34;42.84;101343.41;6249038;22;20439;-72
2022/07/13 02:10:06;;;;;;;21.90;13.20;;;;;;;35.38;42.76;101342.59;6249123;22;20507;-72
2022/07/13 02:12:32;;;;;;;25.47;11.47;;;;;;;35.43;43.39;101345.31;6248902;22;20381;-72
2022/07/13 02:14:58;;;;;;;25.27;14.10;;;;;;;35.43;43.10;101336.41;6276577;22;20357;-72
2022/07/13 02:17:24;;;;;;;35.40;13.70;;;;;;;35.36;43.31;101342.09;6248937;22;20746;-71
2022/07/13 02:19:51;;;;;;;34.17;12.40;;;;;;;35.37;43.01;101341.00;6276427;22;20386;-72
2022/07/13 02:22:17;;;;;;;32.30;12.80;;;;;;;35.22;43.39;101339.16;6249193;22;20468;-73
2022/07/13 02:24:43;;;;;;;28.87;14.30;;;;;;;35.26;43.41;101332.13;6248918;22;20398;-73
2022/07/13 02:27:09;;;;;;;31.67;18.50;;;;;;;35.41;42.95;101333.94;6248912;22;20373;-73
2022/07/13 02:29:35;;;;;;;31.43;13.30;;;;;;;35.34;43.32;101328.03;6248791;22;20417;-73
2022/07/13 02:32:02;;;;;;;35.33;13.80;;;;;;;35.38;43.33;101329.13;6248669;22;20440;-73
2022/07/13 02:34:28;;;;;;;55.30;12.50;;;;;;;35.32;43.31;101332.91;6248821;22;20458;-73
2022/07/13 02:36:55;;;;;;;34.43;13.40;;;;;;;35.24;43.26;101328.91;6248794;22;20430;-73
2022/07/13 02:39:22;;;;;;;36.77;16.80;;;;;;;35.34;43.43;101319.94;6248871;22;20431;-73
2022/07/13 02:41:49;;;;;;;31.33;14.90;;;;;;;35.24;43.72;101322.72;6248756;22;20492;-73
2022/07/13 02:44:16;;;;;;;29.50;14.33;;;;;;;35.32;43.75;101318.63;6248970;22;20461;-73
2022/07/13 02:46:42;;;;;;;30.23;15.43;;;;;;;35.37;43.65;101321.31;6248847;22;20436;-73
2022/07/13 02:49:09;;;;;;;32.77;13.40;;;;;;;35.49;43.78;101317.22;6248652;22;20382;-73
2022/07/13 02:51:35;;;;;;;40.40;14.50;;;;;;;35.29;44.02;101333.47;6248733;22;20378;-73
2022/07/13 02:54:02;;;;;;;32.67;14.03;;;;;;;35.28;44.01;101324.56;6248658;22;20411;-73
2022/07/13 02:56:28;;;;;;;29.57;14.67;;;;;;;35.12;44.08;101327.63;6276367;22;20354;-72
2022/07/13 02:58:54;;;;;;;27.73;13.67;;;;;;;34.96;44.67;101322.25;6248728;22;20385;-73
2022/07/13 03:01:20;;;;;;;22.63;10.93;;;;;;;34.97;44.25;101315.78;6248474;22;20412;-73
2022/07/13 03:03:46;;;;;;;30.27;14.20;;;;;;;34.96;44.02;101311.47;6248663;22;20380;-73
2022/07/13 03:06:12;;;;;;;27.10;11.40;;;;;;;35.04;43.59;101318.19;6248505;22;20415;-73
2022/07/13 03:08:39;;;;;;;23.20;12.83;;;;;;;35.13;44.19;101313.06;6248562;22;20378;-73
2022/07/13 03:11:05;;;;;;;37.50;13.83;;;;;;;35.21;44.39;101307.06;6248556;22;20458;-73
2022/07/13 03:13:31;;;;;;;35.07;15.60;;;;;;;35.12;44.54;101314.94;6275997;22;20350;-73
2022/07/13 03:15:57;;;;;;;37.70;14.90;;;;;;;35.09;44.09;101302.00;6248422;22;20370;-73
2022/07/13 03:18:23;;;;;;;23.20;12.80;;;;;;;35.13;44.36;101300.38;6248388;22;20479;-73
2022/07/13 03:20:49;;;;;;;21.30;11.87;;;;;;;35.21;44.04;101309.78;6248501;22;20366;-73
2022/07/13 03:23:16;;;;;;;24.80;13.10;;;;;;;35.28;43.79;101304.88;6248505;22;20435;-73
2022/07/13 03:25:42;;;;;;;24.53;12.73;;;;;;;35.23;44.17;101303.00;6250611;22;20417;-71
2022/07/13 03:28:08;;;;;;;46.53;16.13;;;;;;;35.25;43.25;101308.16;6251785;22;20377;-71
2022/07/13 03:30:34;;;;;;;29.83;16.10;;;;;;;35.19;43.42;101307.34;6251650;22;20420;-73
2022/07/13 03:33:00;;;;;;;40.60;16.93;;;;;;;35.32;43.38;101305.94;6251518;22;20486;-73
2022/07/13 03:35:26;;;;;;;38.17;15.27;;;;;;;35.38;43.37;101312.13;6226357;22;20404;-73
2022/07/13 03:37:52;;;;;;;39.07;16.20;;;;;;;35.31;43.39;101308.94;6251721;22;20377;-73
2022/07/13 03:40:19;;;;;;;32.50;14.70;;;;;;;35.45;43.60;101316.16;6251860;22;20365;-71
2022/07/13 03:42:45;;;;;;;45.20;15.63;;;;;;;35.35;43.19;101309.97;6251813;22;20377;-73
2022/07/13 03:45:11;;;;;;;33.87;17.20;;;;;;;35.43;43.27;101317.53;6251708;22;20385;-73
2022/07/13 03:47:37;;;;;;;33.20;14.93;;;;;;;35.51;43.18;101325.03;6251851;22;20377;-73
2022/07/13 03:50:04;;;;;;;37.23;13.10;;;;;;;35.46;42.96;101314.25;6251651;22;20420;-73
2022/07/13 03:52:30;;;;;;;47.30;14.77;;;;;;;35.50;43.06;101318.84;6251878;22;20388;-73
2022/07/13 03:54:56;;;;;;;33.50;13.70;;;;;;;35.51;43.34;101309.66;6251858;22;20381;-72
2022/07/13 03:57:22;;;;;;;17.50;12.07;;;;;;;35.20;43.17;101313.56;6279534;22;20471;-72
2022/07/13 03:59:49;;;;;;;34.20;12.37;;;;;;;35.31;43.20;101308.94;6251795;22;20377;-72
2022/07/13 04:02:15;;;;;;;50.07;18.30;;;;;;;35.34;43.63;101314.56;6251811;22;20387;-72
2022/07/13 04:04:41;;;;;;;33.07;14.37;;;;;;;35.36;43.36;101316.97;6279264;22;20446;-72
2022/07/13 04:07:07;;;;;;;29.87;17.43;;;;;;;35.49;43.80;101321.81;6251831;22;20381;-72
2022/07/13 04:09:33;;;;;;;45.50;15.93;;;;;;;35.64;42.91;101329.81;6279043;22;20478;-71
2022/07/13 04:11:59;;;;;;;53.53;17.23;;;;;;;35.57;43.09;101336.59;6279294;22;20354;-71
2022/07/13 04:14:26;;;;;;;31.07;14.57;;;;;;;35.61;43.56;101335.78;6279050;22;20439;-71
2022/07/13 04:16:52;;;;;;;42.77;16.20;;;;;;;35.28;44.05;101338.03;6279289;22;20364;-72
2022/07/13 04:19:18;;;;;;;37.20;17.10;;;;;;;35.22;44.69;101331.06;6251737;22;20468;-72
2022/07/13 04:21:44;;;;;;;29.33;14.23;;;;;;;35.05;44.85;101341.41;6251750;22;20873;-71
2022/07/13 04:24:10;;;;;;;32.43;14.03;;;;;;;35.02;44.70;101335.72;6251606;22;20476;-73
2022/07/13 04:26:36;;;;;;;41.70;17.30;;;;;;;35.10;45.13;101341.34;6251405;22;20424;-73
2022/07/13 04:29:02;;;;;;;33.63;14.03;;;;;;;35.22;45.14;101341.03;6251561;22;20404;-71
2022/07/13 04:31:29;;;;;;;35.53;14.70;;;;;;;35.28;44.96;101345.34;6251928;22;20933;-71
2022/07/13 04:33:55;;;;;;;48.27;17.47;;;;;;;35.39;45.15;101341.50;6279062;22;20358;-71
2022/07/13 04:36:21;;;;;;;43.40;13.77;;;;;;;35.40;45.03;101343.13;6225422;22;20385;-71
2022/07/13 04:38:47;;;;;;;31.97;14.10;;;;;;;35.25;45.19;101340.50;6249969;22;20465;-73
2022/07/13 04:41:13;;;;;;;30.40;13.30;;;;;;;35.22;44.94;101347.25;6250099;22;20435;-71
2022/07/13 04:43:39;;;;;;;49.87;16.00;;;;;;;35.05;45.64;101346.78;6249978;22;20381;-71
2022/07/13 04:46:06;;;;;;;32.30;16.13;;;;;;;35.00;45.68;101350.28;6250164;22;20389;-71
2022/07/13 04:48:32;;;;;;;21.27;11.70;;;;;;;35.03;45.64;101356.22;6277050;22;20354;-71
2022/07/13 04:50:58;;;;;;;39.27;13.07;;;;;;;34.84;45.80;101353.25;6277232;22;20409;-71
2022/07/13 04:53:24;;;;;;;40.47;14.20;;;;;;;35.02;45.76;101358.09;6277458;22;20750;-73
2022/07/13 04:55:50;;;;;;;28.60;13.43;;;;;;;35.04;46.30;101366.72;6249885;22;20382;-73
2022/07/13 04:58:16;;;;;;;34.73;17.13;;;;;;;35.15;46.19;101360.22;6249665;22;20413;-73
2022/07/13 05:00:42;;;;;;;27.67;14.20;;;;;;;35.32;45.75;101359.88;6249947;22;20387;-73
2022/07/13 05:03:08;;;;;;;30.70;15.73;;;;;;;35.25;45.18;101362.09;6277200;22;20400;-73
2022/07/13 05:05:35;;;;;;;38.03;15.10;;;;;;;34.98;46.25;101363.22;6250129;22;20408;-73
2022/07/13 05:08:02;;;;;;;40.73;14.57;;;;;;;35.11;46.15;101359.16;6224622;22;20913;-72
2022/07/13 05:10:29;;;;;;;33.83;16.00;;;;;;;35.03;45.70;101362.41;6277233;22;20499;-73
2022/07/13 05:12:56;;;;;;;18.30;12.40;;;;;;;34.96;45.68;101365.41;6250012;22;20456;-73
2022/07/13 05:15:22;;;;;;;42.03;16.13;;;;;;;34.94;46.03;101372.97;6249481;22;20873;-72
2022/07/13 05:17:50;;;;;;;37.70;15.93;;;;;;;34.85;46.10;101369.16;6277365;22;20367;-75
2022/07/13 05:20:16;;;;;;;21.80;13.83;;;;;;;34.64;46.28;101359.50;6249617;22;20385;-74
2022/07/13 05:22:43;;;;;;;29.87;13.70;;;;;;;34.77;46.34;101355.44;6249632;22;20467;-74
2022/07/13 05:25:09;;;;;;;26.27;12.90;;;;;;;34.77;46.22;101356.25;6249735;22;20396;-74
2022/07/13 05:27:35;;;;;;;22.47;13.47;;;;;;;34.75;46.17;101355.72;6277091;22;20407;-74
2022/07/13 05:30:03;;;;;;;45.57;13.37;;;;;;;34.86;46.47;101361.88;6249739;22;20850;-74
2022/07/13 05:32:29;;;;;;;39.90;16.33;;;;;;;34.99;46.19;101359.47;6276714;22;20421;-75
2022/07/13 05:34:56;;;;;;;21.23;11.93;;;;;;;34.92;45.99;101364.31;6249522;22;20366;-74
2022/07/13 05:37:22;;;;;;;33.83;14.33;;;;;;;34.92;46.36;101367.00;6277089;22;20380;-74
2022/07/13 05:39:48;;;;;;;34.57;14.37;;;;;;;35.09;45.57;101368.59;6249282;22;20366;-74
2022/07/13 05:42:14;;;;;;;22.17;12.03;;;;;;;34.97;45.98;101369.69;6249516;22;20376;-73
2022/07/13 05:44:41;;;;;;;26.10;12.67;;;;;;;34.95;45.63;101374.56;6249452;22;20388;-72
2022/07/13 05:47:07;;;;;;;35.63;15.63;;;;;;;34.84;46.49;101372.94;6249468;22;20380;-72
2022/07/13 05:49:33;;;;;;;32.47;12.80;;;;;;;34.67;46.68;101381.31;6249348;22;20419;-72
2022/07/13 05:52:00;;;;;;;33.23;16.63;;;;;;;34.89;46.09;101383.72;6276879;22;20369;-72
2022/07/13 05:54:26;;;;;;;28.53;14.80;;;;;;;34.76;46.67;101397.75;6249392;22;20381;-72
2022/07/13 05:56:52;;;;;;;39.87;17.27;;;;;;;34.82;46.29;101396.66;6249416;22;20370;-72
2022/07/13 05:59:19;;;;;;;33.90;14.13;;;;;;;34.60;46.63;101405.03;6224233;22;20709;-72
2022/07/13 06:01:45;;;;;;;24.47;13.23;;;;;;;34.45;47.20;101408.53;6249324;22;20373;-73
2022/07/13 06:04:11;;;;;;;30.10;14.00;;;;;;;34.45;47.57;101407.72;6249208;22;20378;-73
2022/07/13 06:06:37;;;;;;;35.33;14.47;;;;;;;34.52;47.54;101410.97;6276728;22;20358;-73
2022/07/13 06:09:03;;;;;;;27.10;13.53;;;;;;;34.43;47.73;101407.19;6249223;22;20431;-73
2022/07/13 06:11:30;;;;;;;28.50;14.10;;;;;;;34.74;47.46;101403.41;6249074;22;20492;-73
2022/07/13 06:13:56;;;;;;;30.73;15.80;;;;;;;34.87;47.24;101410.16;6249246;22;20471;-74
2022/07/13 06:16:22;;;;;;;33.53;14.30;;;;;;;34.80;46.25;101409.59;6249221;22;20377;-76
2022/07/13 06:18:48;;;;;;;23.60;14.80;;;;;;;34.89;46.14;101418.75;6249074;22;20739;-76
2022/07/13 06:21:14;;;;;;;38.17;15.90;;;;;;;34.74;46.91;101424.16;6249140;22;20369;-72
2022/07/13 06:23:41;;;;;;;37.77;14.27;;;;;;;34.88;46.82;101425.22;6248552;22;20370;-77
2022/07/13 06:26:07;;;;;;;31.00;17.40;;;;;;;34.89;46.42;101434.13;6276047;22;20417;-75
2022/07/13 06:28:33;;;;;;;41.33;14.47;;;;;;;34.99;46.31;101434.16;6276456;22;20866;-73
2022/07/13 06:30:59;;;;;;;29.57;15.73;;;;;;;34.81;46.73;101440.06;6275860;22;20862;-73
2022/07/13 06:33:25;;;;;;;44.20;14.37;;;;;;;34.74;47.27;101441.16;6274767;22;20905;-73
2022/07/13 06:35:52;;;;;;;32.53;14.80;;;;;;;34.61;47.37;101444.34;6248976;22;20381;-72
2022/07/13 06:38:18;;;;;;;26.30;12.53;;;;;;;34.51;47.05;101449.75;6248928;22;20384;-71
2022/07/13 06:40:47;;;;;;;31.73;14.97;;;;;;;34.24;47.88;101455.31;6248870;22;20397;-76
2022/07/13 17:44:13;;;;;;;23.50;11.30;;;;;;;36.49;41.93;101153.03;6236088;22;20576;-68
2022/07/13 17:46:40;;;;;;;28.50;12.33;;;;;;;36.33;42.85;101153.19;6246979;22;20499;-71
2022/07/13 17:49:06;;;;;;;18.63;9.83;;;;;;;36.03;43.05;101165.16;6248209;22;20432;-69
2022/07/13 17:51:32;;;;;;;38.77;13.20;;;;;;;36.04;43.14;101174.84;6247683;22;20841;-71
2022/07/13 17:53:58;;;;;;;28.90;11.33;;;;;;;36.10;43.37;101170.22;6276111;22;20831;-68
2022/07/13 17:56:24;;;;;;;21.00;12.20;;;;;;;36.22;43.14;101183.31;6275973;22;20381;-71
2022/07/13 17:58:50;;;;;;;26.73;14.10;;;;;;;36.18;43.26;101180.38;6248443;22;20378;-71
2022/07/13 18:01:16;;;;;;;35.60;19.93;;;;;;;36.14;43.45;101195.53;6248402;22;20373;-69
2022/07/13 18:03:43;;;;;;;20.63;11.10;;;;;;;35.98;43.50;101199.50;6248649;22;20385;-73
2022/07/13 18:06:10;;;;;;;22.03;13.97;;;;;;;36.08;42.94;101191.28;6248962;22;20386;-69
2022/07/13 18:08:36;;;;;;;32.30;13.30;;;;;;;35.95;43.15;101198.16;6276410;22;20848;-69
2022/07/13 18:11:03;;;;;;;34.87;14.90;;;;;;;35.92;43.45;101201.44;6248607;22;20505;-69
2022/07/13 18:13:29;;;;;;;40.53;13.07;;;;;;;35.88;43.28;101204.94;6248845;22;20728;-69
2022/07/13 18:15:55;;;;;;;22.57;11.77;;;;;;;36.10;43.11;101213.41;6248038;22;20414;-70
2022/07/13 18:18:21;;;;;;;30.70;13.70;;;;;;;36.26;42.58;101211.34;6248591;22;20530;-69
2022/07/13 18:20:48;;;;;;;35.57;12.70;;;;;;;36.30;42.20;101213.19;6248318;22;20381;-69
2022/07/13 18:25:58;;;;;;;22.40;13.10;;;;;;;36.00;43.25;101214.31;6275569;22;20425;-69
2022/07/13 18:28:24;;;;;;;82.17;14.30;;;;;;;36.04;43.26;101211.84;6248161;22;20417;-71
2022/07/13 18:30:51;;;;;;;23.63;12.53;;;;;;;36.02;43.36;101222.13;6248317;22;20452;-69
2022/07/13 18:33:17;;;;;;;42.53;13.57;;;;;;;36.01;42.89;101229.41;6248513;22;20734;-71
2022/07/13 18:35:43;;;;;;;28.90;13.60;;;;;;;35.96;42.80;101236.75;6248681;22;20409;-71
2022/07/13 18:38:10;;;;;;;23.33;12.63;;;;;;;36.14;43.19;101243.34;6276328;22;20346;-71
2022/07/13 18:40:36;;;;;;;28.03;12.30;;;;;;;36.17;43.22;101242.78;6248579;22;20374;-71
2022/07/13 18:43:02;;;;;;;27.83;12.80;;;;;;;36.09;42.92;101246.88;6247584;22;20440;-69
2022/07/13 18:45:28;;;;;;;30.60;13.23;;;;;;;36.01;42.68;101261.81;6248228;22;20411;-69
2022/07/13 18:47:56;;;;;;;29.77;13.00;;;;;;;36.00;43.24;101260.22;6248179;22;20436;-69
2022/07/13 18:50:22;;;;;;;29.67;14.80;;;;;;;36.22;42.66;101265.16;6248260;22;20786;-69
2022/07/13 18:52:48;;;;;;;29.53;13.73;;;;;;;36.45;42.35;101266.28;6248505;22;20479;-71
2022/07/13 18:55:14;;;;;;;30.20;14.30;;;;;;;36.27;41.96;101264.28;6248026;22;20442;-71
2022/07/13 18:57:41;;;;;;;36.40;13.90;;;;;;;35.93;42.85;101269.72;6248350;22;20480;-69
2022/07/13 19:00:07;;;;;;;29.00;14.17;;;;;;;36.05;42.98;101270.16;6275800;22;20398;-70
2022/07/13 19:02:34;;;;;;;32.70;13.47;;;;;;;36.06;42.98;101269.88;6248474;22;20378;-70
2022/07/13 19:05:01;;;;;;;28.93;14.03;;;;;;;36.02;42.57;101273.41;6248463;22;20385;-70
2022/07/13 19:07:27;;;;;;;24.93;12.47;;;;;;;36.08;42.43;101277.69;6248392;22;20407;-73
2022/07/13 19:09:53;;;;;;;59.97;15.27;;;;;;;36.02;42.92;101273.41;6247829;22;20463;-72
2022/07/13 19:12:19;;;;;;;27.47;13.23;;;;;;;36.21;42.21;101289.72;6248123;22;20442;-70
2022/07/13 19:14:45;;;;;;;32.73;12.23;;;;;;;36.09;42.12;101279.28;6248098;22;20408;-73
2022/07/13 19:17:11;;;;;;;33.93;15.50;;;;;;;36.06;42.45;101277.97;6247956;22;20478;-70
2022/07/13 19:19:38;;;;;;;31.10;14.37;;;;;;;36.13;42.50;101279.53;6248077;22;20846;-70
2022/07/13 19:22:05;;;;;;;32.33;12.10;;;;;;;36.04;42.24;101277.47;6248526;22;20377;-69
2022/07/13 19:27:16;;;;;;;33.30;14.33;;;;;;;36.16;42.21;101296.00;6274120;22;20372;-70
2022/07/13 19:29:42;;;;;;;21.93;11.37;;;;;;;36.19;42.44;101292.72;6248212;22;20389;-70
2022/07/13 19:32:08;;;;;;;25.37;11.87;;;;;;;36.13;42.78;101295.75;6275887;22;20385;-70
2022/07/13 19:34:34;;;;;;;26.10;12.30;;;;;;;35.99;42.93;101288.31;6247647;22;20390;-69
2022/07/13 19:37:00;;;;;;;43.77;13.40;;;;;;;36.03;42.52;101288.53;6248244;22;20391;-69
2022/07/13 19:39:26;;;;;;;35.80;14.27;;;;;;;35.90;43.30;101283.75;6275949;22;20361;-69
2022/07/13 19:41:53;;;;;;;22.13;11.43;;;;;;;35.93;43.19;101283.22;6275980;22;20370;-71
2022/07/13 19:44:19;;;;;;;25.80;15.23;;;;;;;35.89;43.42;101288.34;6275564;22;20449;-70
2022/07/13 19:46:45;;;;;;;24.33;11.53;;;;;;;35.87;42.82;101287.03;6248160;22;20385;-70
2022/07/13 19:49:11;;;;;;;28.77;13.97;;;;;;;35.82;43.62;101285.16;6248416;22;20381;-70
2022/07/13 19:51:38;;;;;;;23.63;11.13;;;;;;;35.74;43.49;101297.38;6248019;22;20928;-69
2022/07/13 19:54:05;;;;;;;24.40;11.00;;;;;;;35.77;43.86;101296.78;6248232;22;20378;-70
2022/07/13 19:56:33;;;;;;;24.87;11.23;;;;;;;35.81;43.99;101299.75;6248355;22;20443;-69
2022/07/13 19:59:00;;;;;;;26.07;12.40;;;;;;;35.72;43.85;101301.41;6248248;22;20729;-70
2022/07/13 20:01:27;;;;;;;39.20;15.23;;;;;;;35.87;43.84;101304.03;6247599;22;20389;-70
2022/07/13 20:03:53;;;;;;;27.27;12.40;;;;;;;35.67;43.89;101304.16;6274525;22;20449;-70
2022/07/13 20:06:24;;;;;;;43.13;15.83;;;;;;;35.75;44.09;101309.78;6274682;22;20376;-69
2022/07/13 20:08:50;;;;;;;36.87;15.27;;;;;;;35.63;43.52;101303.09;6249227;22;20400;-69
2022/07/13 20:11:18;;;;;;;34.53;15.17;;;;;;;35.73;43.77;101311.16;6277246;22;20404;-72
2022/07/13 20:13:44;;;;;;;36.50;13.80;;;;;;;35.62;44.43;101307.69;6249623;22;20396;-73
2022/07/13 20:16:11;;;;;;;55.00;15.40;;;;;;;35.65;44.04;101311.72;6250124;22;20463;-74
2022/07/13 20:18:38;;;;;;;30.50;13.90;;;;;;;35.53;44.16;101314.75;6250179;22;20413;-68
2022/07/13 20:21:04;;;;;;;33.17;13.43;;;;;;;35.62;44.20;101315.78;6225082;22;20860;-69
2022/07/13 20:23:37;;;;;;;22.37;11.77;;;;;;;35.62;44.19;101309.59;6250012;22;20792;-70
2022/07/13 20:26:03;;;;;;;39.03;12.77;;;;;;;35.70;44.39;101311.69;6249507;22;20491;-68
2022/07/13 20:28:30;;;;;;;28.10;13.77;;;;;;;35.79;43.75;101315.44;6249864;22;20416;-67
2022/07/13 20:30:56;;;;;;;53.67;15.50;;;;;;;35.63;44.14;101319.31;6249836;22;20421;-70
2022/07/13 20:33:22;;;;;;;26.90;12.87;;;;;;;35.76;43.70;101318.66;6250056;22;20417;-70
2022/07/13 20:35:49;;;;;;;23.43;12.63;;;;;;;35.85;44.10;101314.31;6250211;22;20856;-70
2022/07/13 20:38:15;;;;;;;31.97;15.80;;;;;;;35.69;43.98;101312.78;6250187;22;20464;-68
2022/07/13 20:40:41;;;;;;;37.57;12.70;;;;;;;35.63;44.26;101317.41;6249454;22;20413;-67
2022/07/13 20:43:07;;;;;;;29.03;12.50;;;;;;;35.78;43.78;101316.50;6249762;22;20464;-68
2022/07/13 20:45:33;;;;;;;40.30;14.00;;;;;;;35.66;44.37;101311.44;6277301;22;20425;-68
2022/07/13 20:48:00;;;;;;;30.47;17.40;;;;;;;35.67;44.30;101320.38;6249980;22;20385;-68
2022/07/13 20:50:27;;;;;;;32.20;12.97;;;;;;;35.74;44.56;101321.66;6249265;22;20516;-68
2022/07/13 20:52:53;;;;;;;40.23;14.57;;;;;;;35.95;44.27;101327.75;6249682;22;20396;-68
2022/07/13 20:55:19;;;;;;;30.60;12.63;;;;;;;35.88;43.76;101321.81;6249603;22;20409;-69
2022/07/13 20:57:45;;;;;;;32.67;13.33;;;;;;;35.67;44.35;101333.84;6277063;22;20354;-68
2022/07/13 21:00:12;;;;;;;29.50;13.47;;;;;;;35.68;43.89;101327.38;6249800;22;20778;-69
2022/07/13 21:02:38;;;;;;;33.87;17.23;;;;;;;35.60;43.81;101336.84;6277187;22;20404;-68
2022/07/13 21:05:04;;;;;;;35.23;14.83;;;;;;;35.36;44.44;101336.69;6249561;22;20440;-68
2022/07/13 21:07:31;;;;;;;29.33;13.90;;;;;;;35.63;44.15;101339.00;6224691;22;20443;-68
2022/07/13 21:09:59;;;;;;;30.33;14.27;;;;;;;35.60;44.57;101344.94;6248155;22;20445;-69
2022/07/13 21:12:27;;;;;;;57.80;16.97;;;;;;;35.57;44.04;101352.78;6274021;22;20378;-67
2022/07/13 21:14:53;;;;;;;31.10;14.53;;;;;;;35.48;44.31;101345.28;6222365;22;20790;-71
2022/07/13 21:17:21;;;;;;;32.67;13.50;;;;;;;35.51;44.33;101350.13;6274997;22;20717;-70
2022/07/13 21:19:51;;;;;;;44.57;14.83;;;;;;;35.45;44.82;101345.84;6247192;22;20849;-71
2022/07/13 21:22:18;;;;;;;32.87;12.23;;;;;;;35.53;44.65;101345.25;6247986;22;20836;-68
2022/07/13 21:24:45;;;;;;;35.03;12.30;;;;;;;35.59;44.69;101342.53;6248989;22;20904;-68
2022/07/13 21:27:13;;;;;;;32.70;15.20;;;;;;;35.36;44.57;101342.09;6276039;22;20833;-68
2022/07/13 21:29:39;;;;;;;51.20;12.80;;;;;;;35.51;44.37;101352.00;6248933;22;20393;-68
2022/07/13 21:32:08;;;;;;;26.00;11.97;;;;;;;35.52;44.72;101351.72;6276016;22;20442;-68
2022/07/13 21:34:34;;;;;;;42.30;18.13;;;;;;;35.57;45.26;101347.41;6276762;22;20362;-68
2022/07/13 21:37:00;;;;;;;35.60;16.97;;;;;;;35.47;45.14;101351.75;6249640;22;20729;-68
2022/07/13 21:39:27;;;;;;;37.07;16.70;;;;;;;35.35;45.14;101340.44;6248952;22;20868;-68
2022/07/13 21:41:54;;;;;;;37.60;16.10;;;;;;;35.34;45.60;101346.13;6276290;22;20358;-68
2022/07/13 21:44:22;;;;;;;27.77;12.40;;;;;;;35.13;46.09;101345.41;6244147;22;20579;-67
2022/07/13 21:46:48;;;;;;;31.83;14.93;;;;;;;35.29;45.89;101349.63;6218340;23;20386;-69
2022/07/13 21:49:20;;;;;;;36.97;13.47;;;;;;;35.22;46.10;101362.63;6244049;23;20382;-68
2022/07/13 21:51:47;;;;;;;38.93;15.70;;;;;;;35.18;46.05;101381.25;6243577;23;20505;-68
2022/07/13 21:54:16;;;;;;;41.93;14.60;;;;;;;35.23;45.90;101380.41;6245840;22;20351;-68
2022/07/13 21:56:42;;;;;;;28.70;13.60;;;;;;;35.37;45.86;101384.16;6243525;23;20727;-69
2022/07/13 21:59:10;;;;;;;33.00;16.67;;;;;;;35.37;45.67;101384.16;6218520;23;20482;-71
2022/07/13 22:01:36;;;;;;;36.00;15.60;;;;;;;35.38;46.09;101388.47;6243867;23;20444;-71
2022/07/13 22:04:03;;;;;;;29.20;15.63;;;;;;;35.34;46.07;101395.47;6244558;23;20854;-68
2022/07/13 22:06:32;;;;;;;28.57;15.50;;;;;;;35.34;45.54;101395.47;6245724;22;20412;-68
2022/07/13 22:08:59;;;;;;;24.97;13.17;;;;;;;35.55;45.76;101392.75;6219738;23;20359;-68
2022/07/13 22:12:02;;;;;;;32.60;16.90;;;;;;;35.61;45.33;101387.06;6244248;23;20800;-68